Time;durP1;ratioP1;P1;durP2;ratioP2;P2;SDS_P1;SDS_P2;PMS_P1;PMS_P2;Temp;Humidity;BMP_temperature;BMP_pressure;BME280_temperature;BME280_humidity;BME280_pressure;Samples;Min_cycle;Max_cycle;Signal;HPM_P1;HPM_P2
2022/11/12 00:00:36;;;;;;;13.52;10.20;;;5.80;82.30;;;4.04;100.00;97592.50;4945775;28;20851;-67
2022/11/12 00:03:02;;;;;;;16.10;10.80;;;5.80;82.50;;;4.02;100.00;97590.94;4977378;28;20553;-67
2022/11/12 00:05:28;;;;;;;13.45;10.45;;;5.70;82.40;;;3.99;100.00;97589.41;4909583;28;20604;-67
2022/11/12 00:07:54;;;;;;;29.83;10.70;;;5.70;82.30;;;3.96;100.00;97587.03;4908414;28;20319;-67
2022/11/12 00:10:20;;;;;;;22.15;9.93;;;5.70;82.00;;;3.93;100.00;97589.84;4903480;28;20708;-66
2022/11/12 00:12:46;;;;;;;11.02;9.30;;;5.70;82.10;;;3.91;100.00;97595.16;4908106;28;20354;-66
2022/11/12 00:15:13;;;;;;;18.45;9.35;;;5.70;82.10;;;3.89;100.00;97591.84;4911503;28;20397;-66
2022/11/12 00:17:39;;;;;;;13.18;9.43;;;5.60;82.20;;;3.88;100.00;97589.38;4905447;28;20463;-66
2022/11/12 00:20:06;;;;;;;27.60;10.25;;;5.60;82.40;;;3.86;100.00;97593.84;4909714;28;20621;-66
2022/11/12 00:22:32;;;;;;;12.82;9.38;;;5.60;82.40;;;3.85;100.00;97590.41;4907550;28;20328;-67
2022/11/12 00:24:58;;;;;;;13.77;9.38;;;5.60;82.40;;;3.85;100.00;97589.59;4924610;28;20362;-67
2022/11/12 00:27:24;;;;;;;10.90;8.45;;;5.60;82.50;;;3.86;100.00;97593.84;4921176;28;20363;-67
2022/11/12 00:29:51;;;;;;;10.35;8.63;;;5.60;82.50;;;3.86;100.00;97591.25;4922852;28;20883;-68
2022/11/12 00:32:17;;;;;;;13.98;8.35;;;5.60;82.40;;;3.84;100.00;97593.09;4906206;28;20334;-67
2022/11/12 00:34:43;;;;;;;18.00;7.70;;;5.60;82.00;;;3.85;100.00;97586.97;4908220;28;20315;-67
2022/11/12 00:37:09;;;;;;;22.90;8.68;;;5.60;82.10;;;3.85;100.00;97589.59;4922810;28;20488;-66
2022/11/12 00:39:35;;;;;;;30.83;9.98;;;5.60;82.20;;;3.80;100.00;97587.28;4919951;28;20791;-68
2022/11/12 00:42:01;;;;;;;34.30;10.27;;;5.50;82.60;;;3.74;100.00;97587.75;4904973;28;20452;-66
2022/11/12 00:44:28;;;;;;;22.90;10.60;;;5.40;82.70;;;3.71;100.00;97587.13;4900441;28;20508;-67
2022/11/12 00:46:55;;;;;;;26.70;10.85;;;5.50;83.10;;;3.69;100.00;97587.25;4903416;28;20469;-67
2022/11/12 00:49:22;;;;;;;19.65;10.10;;;5.50;83.30;;;3.69;100.00;97590.69;4901717;28;20432;-67
2022/11/12 00:51:48;;;;;;;17.60;9.60;;;5.50;83.30;;;3.70;100.00;97591.50;4902126;28;20366;-67
2022/11/12 00:54:14;;;;;;;18.08;9.85;;;5.50;83.60;;;3.70;100.00;97596.72;4930758;28;20483;-66
2022/11/12 00:56:40;;;;;;;12.85;9.77;;;5.40;83.30;;;3.72;100.00;97592.22;4942748;28;20343;-66
2022/11/12 00:59:07;;;;;;;15.75;8.60;;;5.50;83.60;;;3.75;100.00;97596.38;4915363;28;20362;-66
2022/11/12 01:01:33;;;;;;;11.13;8.63;;;5.60;83.30;;;3.75;100.00;97588.56;4923884;28;20347;-66
2022/11/12 01:03:59;;;;;;;16.25;8.43;;;5.60;83.50;;;3.76;100.00;97587.63;4908614;28;20705;-67
2022/11/12 01:06:26;;;;;;;11.13;7.85;;;5.60;83.20;;;3.75;100.00;97583.38;4925061;28;20440;-67
2022/11/12 01:08:53;;;;;;;15.15;7.88;;;5.60;82.70;;;3.74;100.00;97582.53;4903716;28;20309;-67
2022/11/12 01:11:27;;;;;;;16.02;8.10;;;5.60;82.50;;;3.75;100.00;97572.97;4904388;28;20437;-66
2022/11/12 01:13:56;;;;;;;18.95;8.68;;;5.60;82.70;;;3.77;100.00;97571.91;4910630;28;20303;-66
2022/11/12 01:16:24;;;;;;;73.68;7.65;;;5.60;82.80;;;3.78;100.00;97568.34;4889476;28;20433;-66
2022/11/12 01:18:55;;;;;;;12.55;8.10;;;5.60;82.40;;;3.78;100.00;97572.72;4915031;28;20624;-67
2022/11/12 01:21:23;;;;;;;14.00;7.47;;;5.60;82.80;;;3.79;100.00;97574.38;4907739;28;20484;-66
2022/11/12 01:23:49;;;;;;;12.90;8.02;;;5.60;82.90;;;3.77;100.00;97571.91;4923132;28;20375;-67
2022/11/12 01:26:17;;;;;;;14.55;7.43;;;5.60;82.80;;;3.78;100.00;97564.91;4922207;28;20210;-67
2022/11/12 01:28:43;;;;;;;12.52;8.30;;;5.60;82.80;;;3.78;100.00;97567.53;4907499;28;20412;-67
2022/11/12 01:31:13;;;;;;;13.23;7.28;;;5.60;82.80;;;3.78;100.00;97568.34;4926709;28;20651;-66
2022/11/12 01:33:43;;;;;;;12.00;7.70;;;5.60;82.90;;;3.79;100.00;97569.19;4940185;28;20647;-66
2022/11/12 01:36:09;;;;;;;21.88;7.55;;;5.60;82.90;;;3.80;100.00;97563.03;4920997;28;20330;-67
2022/11/12 01:38:36;;;;;;;9.13;6.80;;;5.60;82.40;;;3.82;100.00;97555.94;4913693;28;20833;-67
2022/11/12 01:41:03;;;;;;;23.88;7.60;;;5.70;82.50;;;3.82;100.00;97555.94;4923020;28;20279;-69
2022/11/12 01:43:29;;;;;;;12.30;7.05;;;5.60;82.20;;;3.80;100.00;97550.03;4928105;28;20690;-67
2022/11/12 01:45:56;;;;;;;9.40;7.07;;;5.60;82.30;;;3.79;100.00;97558.78;4922194;28;20696;-67
2022/11/12 01:48:37;;;;;;;9.57;6.90;;;5.60;82.30;;;3.78;100.00;97546.69;4923160;28;20528;-67
2022/11/12 01:51:03;;;;;;;20.10;6.80;;;5.60;82.30;;;3.77;100.00;97550.25;4926363;28;20279;-68
2022/11/12 01:53:32;;;;;;;8.35;6.68;;;5.60;82.30;;;3.76;100.00;97548.59;4924745;28;20313;-67
2022/11/12 01:56:02;;;;;;;8.75;7.63;;;5.60;82.50;;;3.77;100.00;97545.03;4923048;28;20489;-67
2022/11/12 01:58:28;;;;;;;17.80;8.77;;;5.60;82.80;;;3.78;100.00;97546.69;4905672;28;20301;-67
2022/11/12 02:00:54;;;;;;;14.00;8.32;;;5.60;82.70;;;3.79;100.00;97544.00;4909673;28;20355;-69
2022/11/12 02:03:23;;;;;;;41.67;8.70;;;5.60;82.70;;;3.78;100.00;97542.31;4903597;28;20691;-68
2022/11/12 02:05:59;;;;;;;11.85;8.45;;;5.60;82.40;;;3.77;100.00;97551.09;4891549;28;20756;-68
2022/11/12 02:08:56;;;;;;;28.02;9.25;;;5.60;82.70;;;3.78;100.00;97546.69;4908115;28;20770;-68
2022/11/12 02:11:48;;;;;;;;;;;;;;;;;;;;;
2022/11/12 02:14:14;;;;;;;12.55;8.45;;;5.60;82.70;;;3.79;100.00;97540.56;4936476;28;20362;-67
2022/11/12 02:16:42;;;;;;;12.48;8.80;;;5.60;82.80;;;3.78;100.00;97546.69;4893837;28;20291;-68
2022/11/12 02:19:14;;;;;;;13.38;9.35;;;5.60;82.70;;;3.79;100.00;97540.56;4910573;28;20230;-68
2022/11/12 02:21:40;;;;;;;11.48;7.82;;;5.60;82.50;;;3.79;100.00;97538.78;4908331;28;20729;-68
2022/11/12 02:24:12;;;;;;;9.73;7.60;;;5.60;82.70;;;3.79;100.00;97538.78;4911272;28;20382;-67
2022/11/12 02:26:45;;;;;;;19.50;8.15;;;5.60;82.80;;;3.79;100.00;97537.94;4954734;28;20326;-67
2022/11/12 02:29:11;;;;;;;16.10;8.10;;;5.60;82.80;;;3.77;100.00;97545.03;4910227;28;20311;-67
2022/11/12 02:31:37;;;;;;;29.77;7.90;;;5.50;82.80;;;3.76;100.00;97538.19;4924949;28;20435;-67
2022/11/12 02:34:03;;;;;;;8.88;7.55;;;5.60;82.80;;;3.78;100.00;97536.28;4907464;28;20365;-67
2022/11/12 02:36:30;;;;;;;11.65;8.23;;;5.60;83.00;;;3.79;100.00;97517.13;4910328;28;20342;-69
2022/11/12 02:38:56;;;;;;;9.85;7.68;;;5.60;82.90;;;3.80;100.00;97514.41;4902046;28;20354;-67
2022/11/12 02:41:22;;;;;;;18.33;8.43;;;5.70;83.00;;;3.80;100.00;97519.63;4927779;28;20483;-67
2022/11/12 02:43:48;;;;;;;26.17;8.18;;;5.60;82.70;;;3.80;100.00;97524.81;4921196;28;20269;-68
2022/11/12 02:46:15;;;;;;;16.77;7.82;;;5.60;82.80;;;3.79;100.00;97523.16;4917987;28;20369;-66
2022/11/12 02:48:43;;;;;;;10.73;7.47;;;5.60;82.70;;;3.79;100.00;97522.34;4919463;28;20400;-67
2022/11/12 02:51:10;;;;;;;23.63;8.15;;;5.60;82.90;;;3.79;100.00;97520.56;4921049;28;20338;-67
2022/11/12 02:53:36;;;;;;;10.38;7.68;;;5.60;83.00;;;3.80;100.00;97518.78;4921123;28;20375;-67
2022/11/12 02:56:03;;;;;;;13.50;7.80;;;5.60;82.90;;;3.78;100.00;97520.69;4921084;28;20357;-67
2022/11/12 02:58:29;;;;;;;12.00;7.80;;;5.60;83.00;;;3.79;100.00;97517.13;4913380;28;21146;-67
2022/11/12 03:00:59;;;;;;;11.43;7.93;;;5.60;83.20;;;3.79;100.00;97524.94;4890465;28;20411;-67
2022/11/12 03:03:25;;;;;;;13.40;7.60;;;5.60;83.20;;;3.80;100.00;97526.59;4907454;28;20371;-67
2022/11/12 03:05:59;;;;;;;9.65;7.75;;;5.60;83.10;;;3.82;100.00;97537.72;4938584;28;20317;-67
2022/11/12 03:08:25;;;;;;;13.85;8.20;;;5.70;83.30;;;3.80;100.00;97531.81;4923644;28;20625;-67
2022/11/12 03:10:51;;;;;;;13.10;7.22;;;5.60;83.30;;;3.80;100.00;97534.41;4926368;28;20354;-67
2022/11/12 03:13:18;;;;;;;11.20;7.18;;;5.60;83.10;;;3.81;100.00;97531.69;4929731;28;20269;-68
2022/11/12 03:15:44;;;;;;;17.42;9.05;;;5.70;83.10;;;3.82;100.00;97540.31;4923096;28;20198;-67
2022/11/12 03:18:10;;;;;;;11.73;8.43;;;5.60;83.00;;;3.81;100.00;97547.31;4929847;28;20358;-67
2022/11/12 03:20:37;;;;;;;10.10;7.95;;;5.60;83.00;;;3.82;100.00;97542.94;4925089;28;20440;-67
2022/11/12 03:23:08;;;;;;;15.70;7.00;;;5.70;83.00;;;3.82;100.00;97533.34;4909932;28;20440;-66
2022/11/12 03:25:34;;;;;;;38.95;7.35;;;5.70;82.90;;;3.79;100.00;97532.75;4923838;28;20627;-66
2022/11/12 03:28:06;;;;;;;13.20;7.45;;;5.60;82.80;;;3.77;100.00;97539.84;4904533;28;20508;-67
2022/11/12 03:30:34;;;;;;;17.60;7.32;;;5.60;82.80;;;3.75;100.00;97536.53;4925052;28;20717;-66
2022/11/12 03:33:01;;;;;;;19.58;6.55;;;5.60;82.80;;;3.73;100.00;97544.44;4931054;28;20268;-66
2022/11/12 03:35:27;;;;;;;24.23;7.03;;;5.60;82.70;;;3.71;100.00;97545.50;4927903;28;20370;-66
2022/11/12 03:37:53;;;;;;;23.38;7.25;;;5.60;82.70;;;3.67;100.00;97540.53;4902752;28;20461;-67
2022/11/12 03:40:19;;;;;;;18.85;7.32;;;5.50;82.50;;;3.66;100.00;97544.06;4893806;28;20398;-67
2022/11/12 03:42:46;;;;;;;9.10;6.68;;;5.50;82.80;;;3.64;100.00;97545.13;4889747;28;20386;-67
2022/11/12 03:45:13;;;;;;;9.93;7.35;;;5.40;82.90;;;3.62;100.00;97536.56;4890116;28;20714;-67
2022/11/12 03:47:43;;;;;;;13.23;7.72;;;5.40;83.10;;;3.63;100.00;97544.28;4925346;28;20354;-66
2022/11/12 03:50:10;;;;;;;12.75;7.43;;;5.50;83.10;;;3.62;100.00;97537.41;4891921;28;20442;-68
2022/11/12 03:52:36;;;;;;;18.73;7.05;;;5.40;83.30;;;3.61;100.00;97540.94;4909231;28;20763;-67
2022/11/12 03:55:04;;;;;;;24.13;7.75;;;5.50;83.40;;;3.62;100.00;97542.63;4928439;28;20354;-67
2022/11/12 03:57:30;;;;;;;29.48;7.75;;;5.40;83.30;;;3.61;100.00;97540.09;4929034;28;20286;-67
2022/11/12 03:59:56;;;;;;;17.98;7.57;;;5.40;83.30;;;3.60;100.00;97544.47;4942307;28;20301;-66
2022/11/12 04:02:25;;;;;;;78.82;8.45;;;5.50;83.60;;;3.60;100.00;97548.84;4923151;28;20417;-66
2022/11/12 04:10:22;;;;;;;14.73;7.68;;;5.40;83.50;;;3.55;100.00;97541.38;4923661;28;20644;-67
2022/11/12 04:15:32;;;;;;;29.83;8.18;;;5.30;84.00;;;3.54;100.00;97544.94;4929236;28;20342;-67
2022/11/12 04:23:28;;;;;;;29.67;8.23;;;5.50;84.30;;;3.57;100.00;97544.69;4923942;28;20558;-66
2022/11/12 04:30:14;;;;;;;31.83;7.93;;;5.40;83.80;;;3.52;100.00;97541.59;4922914;28;20319;-66
2022/11/12 04:32:01;;;;;;;34.65;7.25;;;5.30;83.90;;;3.50;100.00;97548.69;4950080;28;20474;-72
2022/11/12 04:34:27;;;;;;;8.07;6.72;;;5.40;84.00;;;3.48;100.00;97553.19;4937436;28;20067;-67
2022/11/12 04:36:53;;;;;;;35.65;7.70;;;5.30;84.00;;;3.49;100.00;97541.84;4923005;28;20410;-69
2022/11/12 04:39:20;;;;;;;15.90;7.35;;;5.40;84.10;;;3.48;100.00;97553.19;4939117;28;20421;-66
2022/11/12 04:47:15;;;;;;;104.28;8.65;;;5.30;84.10;;;3.44;100.00;97537.91;4933360;28;20403;-67
2022/11/12 04:49:41;;;;;;;27.10;6.88;;;5.30;84.00;;;3.41;100.00;97541.56;4938111;28;20431;-67
2022/11/12 04:52:08;;;;;;;44.40;7.13;;;5.20;84.10;;;3.40;100.00;97542.50;4916038;28;20117;-67
2022/11/12 04:54:34;;;;;;;8.68;6.18;;;5.20;83.70;;;3.39;100.00;97546.00;4917393;28;20413;-67
2022/11/12 04:57:01;;;;;;;51.25;18.88;;;5.20;84.00;;;3.40;100.00;97552.06;4906047;28;20666;-68
2022/11/12 04:59:27;;;;;;;85.75;9.05;;;5.20;83.80;;;3.38;100.00;97549.56;4903392;28;20469;-69
2022/11/12 05:01:53;;;;;;;34.10;7.53;;;5.20;83.70;;;3.37;100.00;97545.28;4935819;28;20655;-68
2022/11/12 05:04:20;;;;;;;34.63;6.88;;;5.20;83.80;;;3.37;100.00;97547.88;4890942;28;20358;-68
2022/11/12 05:06:53;;;;;;;21.38;6.07;;;5.20;84.00;;;3.37;100.00;97550.50;4909459;28;20550;-67
2022/11/12 05:09:21;;;;;;;30.98;8.30;;;5.30;84.00;;;3.35;100.00;97547.19;4925559;28;20814;-67
2022/11/12 05:11:47;;;;;;;20.98;9.98;;;5.10;83.60;;;3.33;100.00;97552.47;4888447;28;20322;-67
2022/11/12 05:14:13;;;;;;;25.23;6.38;;;5.10;83.90;;;3.31;100.00;97554.38;4928032;28;20444;-67
2022/11/12 05:16:40;;;;;;;12.07;6.82;;;5.10;83.70;;;3.30;100.00;97546.69;4891943;28;20439;-68
2022/11/12 05:19:06;;;;;;;17.63;6.00;;;5.10;83.90;;;3.28;100.00;97543.34;4913744;28;20310;-68
2022/11/12 05:24:17;;;;;;;13.77;5.97;;;5.10;83.80;;;3.22;100.00;97543.78;4925788;28;20246;-67
2022/11/12 05:26:43;;;;;;;21.77;5.72;;;5.00;83.70;;;3.20;100.00;97545.69;4906842;28;20363;-65
2022/11/12 05:29:09;;;;;;;14.20;6.13;;;5.00;83.60;;;3.19;100.00;97551.81;4925968;28;20368;-65
2022/11/12 05:31:35;;;;;;;11.98;5.65;;;4.90;83.40;;;3.16;100.00;97545.03;4890558;28;20626;-67
2022/11/12 05:34:02;;;;;;;23.35;5.63;;;4.90;83.20;;;3.14;100.00;97546.09;4924460;28;20689;-68
2022/11/12 05:36:28;;;;;;;7.63;5.03;;;4.90;83.20;;;3.07;100.00;97549.13;4919393;28;20406;-67
2022/11/12 05:38:54;;;;;;;16.05;5.28;;;4.90;83.40;;;3.07;100.00;97543.09;4934576;28;20519;-67
2022/11/12 05:41:20;;;;;;;10.25;5.72;;;4.90;83.10;;;3.07;100.00;97551.72;4904113;28;20346;-67
2022/11/12 05:43:47;;;;;;;10.77;5.80;;;4.90;83.40;;;3.06;100.00;97552.66;4924922;28;20358;-67
2022/11/12 05:46:13;;;;;;;10.05;6.53;;;4.90;83.70;;;3.08;100.00;97548.19;4938648;28;20535;-67
2022/11/12 05:48:39;;;;;;;6.97;5.85;;;4.90;83.70;;;3.08;100.00;97545.56;4919929;28;20376;-67
2022/11/12 05:51:06;;;;;;;18.55;8.80;;;5.00;83.50;;;3.12;100.00;97553.16;4889230;28;20559;-67
2022/11/12 05:53:32;;;;;;;23.00;9.70;;;5.00;83.70;;;3.14;100.00;97557.31;4904959;28;20329;-67
2022/11/12 05:56:02;;;;;;;22.48;6.85;;;5.00;83.40;;;3.14;100.00;97551.28;4908839;28;20358;-67
2022/11/12 05:58:30;;;;;;;12.75;8.80;;;5.00;83.20;;;3.12;100.00;97555.75;4925996;28;20294;-67
2022/11/12 06:00:56;;;;;;;56.20;25.13;;;5.00;83.30;;;3.11;100.00;97561.91;4918124;28;20384;-67
2022/11/12 06:03:23;;;;;;;30.15;16.60;;;5.00;83.30;;;3.08;100.00;97563.78;4927461;28;20444;-66
2022/11/12 06:05:49;;;;;;;10.32;6.95;;;4.90;83.50;;;3.06;100.00;97565.66;4931118;28;20810;-68
2022/11/12 06:08:15;;;;;;;24.23;15.00;;;4.90;83.40;;;3.05;100.00;97574.38;4926052;28;20199;-68
2022/11/12 06:10:41;;;;;;;45.90;6.47;;;4.90;83.50;;;3.01;100.00;97567.75;4926898;28;20295;-67
2022/11/12 06:13:07;;;;;;;12.27;6.10;;;4.80;83.00;;;2.98;100.00;97569.72;4909027;28;20343;-68
2022/11/12 06:15:34;;;;;;;6.78;5.38;;;4.70;83.20;;;2.97;100.00;97560.28;4906202;28;20278;-68
2022/11/12 06:18:00;;;;;;;14.95;5.55;;;4.80;83.40;;;2.97;100.00;97571.50;4910483;28;20370;-67
2022/11/12 06:20:26;;;;;;;8.00;5.45;;;4.80;83.10;;;2.95;100.00;97567.34;4909563;28;20206;-67
2022/11/12 06:22:52;;;;;;;15.85;6.00;;;4.80;83.40;;;2.97;100.00;97570.66;4910164;28;20747;-67
2022/11/12 06:25:18;;;;;;;12.07;5.60;;;4.80;83.20;;;2.97;100.00;97570.66;4927474;28;20379;-67
2022/11/12 06:27:44;;;;;;;16.05;5.88;;;4.80;83.10;;;2.97;100.00;97571.50;4947859;28;20374;-67
2022/11/12 06:30:11;;;;;;;78.35;6.93;;;4.80;83.60;;;2.98;100.00;97573.16;4924907;28;20374;-67
2022/11/12 06:32:37;;;;;;;37.25;6.15;;;4.80;82.90;;;2.95;100.00;97575.97;4911221;28;20198;-68
2022/11/12 06:35:04;;;;;;;13.90;6.07;;;4.80;83.20;;;2.94;100.00;97582.13;4915982;28;20401;-67
2022/11/12 06:37:30;;;;;;;54.75;7.05;;;4.80;83.30;;;2.95;100.00;97583.78;4895784;28;20350;-66
2022/11/12 06:39:56;;;;;;;11.82;5.35;;;4.80;83.00;;;2.93;100.00;97583.03;4910449;28;20601;-67
2022/11/12 06:42:25;;;;;;;80.57;6.38;;;4.80;83.10;;;2.93;100.00;97585.63;4890014;28;20467;-67
2022/11/12 06:44:51;;;;;;;16.48;5.65;;;4.70;83.10;;;2.90;100.00;97585.00;4892943;28;20567;-67
2022/11/12 06:47:17;;;;;;;5.68;5.05;;;4.70;83.20;;;2.89;100.00;97584.16;4898300;28;20045;-67
2022/11/12 06:49:43;;;;;;;20.40;5.75;;;4.80;83.30;;;2.90;100.00;97580.63;4927082;28;20261;-67
2022/11/12 06:52:09;;;;;;;18.40;5.47;;;4.80;83.40;;;2.91;100.00;97587.50;4896277;28;20473;-68
2022/11/12 06:54:36;;;;;;;34.05;11.70;;;4.80;83.60;;;2.95;100.00;97582.94;4890561;28;20331;-67
2022/11/12 06:57:02;;;;;;;240.80;9.90;;;4.90;83.40;;;2.94;100.00;97587.31;4897106;28;20816;-68
2022/11/12 06:59:28;;;;;;;243.85;10.13;;;4.70;82.90;;;2.90;100.00;97585.84;4892306;28;20689;-67
2022/11/12 07:01:54;;;;;;;153.25;7.72;;;4.70;83.50;;;2.86;100.00;97586.97;4890637;28;20206;-67
2022/11/12 07:04:20;;;;;;;81.10;7.13;;;4.60;83.90;;;2.81;100.00;97589.06;4890631;28;20328;-68
2022/11/12 07:06:47;;;;;;;14.73;5.57;;;4.50;84.20;;;2.81;100.00;97586.47;4895406;28;20525;-69
2022/11/12 07:09:13;;;;;;;135.80;8.10;;;4.60;84.30;;;2.82;100.00;97588.13;4932620;28;20365;-67
2022/11/12 07:11:39;;;;;;;28.83;6.60;;;4.60;84.10;;;2.83;100.00;97592.41;4926907;28;20037;-67
2022/11/12 07:14:05;;;;;;;94.60;7.38;;;4.70;83.80;;;2.84;100.00;97588.84;4921162;28;20528;-67
2022/11/12 07:16:32;;;;;;;29.05;5.50;;;4.70;84.00;;;2.87;100.00;97595.59;4900290;28;20498;-68
2022/11/12 07:18:58;;;;;;;72.05;6.78;;;4.80;83.90;;;2.89;100.00;97584.16;4893201;28;20370;-67
2022/11/12 07:21:24;;;;;;;131.30;7.50;;;4.90;83.50;;;2.92;100.00;97589.16;4923782;28;20528;-67
2022/11/12 07:23:51;;;;;;;13.05;5.28;;;4.80;83.20;;;2.90;100.00;97593.63;4906951;28;20842;-67
2022/11/12 07:26:26;;;;;;;84.60;7.38;;;4.80;84.00;;;2.97;100.00;97591.47;4908039;28;20316;-66
2022/11/12 07:28:54;;;;;;;12.20;5.78;;;4.90;83.70;;;2.93;100.00;97601.22;4951651;28;20256;-67
2022/11/12 07:31:20;;;;;;;32.40;23.42;;;4.80;83.90;;;2.98;100.00;97596.56;4891347;28;20207;-67
2022/11/12 07:33:49;;;;;;;57.97;7.35;;;5.00;84.10;;;3.04;100.00;97601.31;4913725;28;20354;-68
2022/11/12 07:36:18;;;;;;;14.57;6.07;;;5.10;83.60;;;3.10;100.00;97601.84;4928061;28;20476;-69
2022/11/12 07:38:44;;;;;;;78.93;11.48;;;5.10;83.50;;;3.17;100.00;97592.66;4928278;28;20063;-69
2022/11/12 07:41:16;;;;;;;27.60;7.75;;;5.30;83.20;;;3.22;100.00;97593.19;4923572;28;20340;-69
2022/11/12 07:43:44;;;;;;;14.05;6.15;;;5.30;82.90;;;3.31;100.00;97584.75;4907606;28;20359;-69
2022/11/12 07:46:17;;;;;;;33.45;5.70;;;5.40;83.40;;;3.35;100.00;97586.19;4909640;28;20444;-71
2022/11/12 07:48:43;;;;;;;33.47;5.70;;;5.40;82.80;;;3.39;100.00;97587.63;4896986;28;20335;-68
2022/11/12 07:51:21;;;;;;;9.68;5.28;;;5.50;83.00;;;3.47;100.00;97589.72;4880309;28;20309;-70
2022/11/12 07:53:48;;;;;;;14.95;5.10;;;5.60;82.70;;;3.50;100.00;97582.50;4907197;28;20345;-69
2022/11/12 07:56:19;;;;;;;15.65;4.85;;;5.60;82.10;;;3.56;100.00;97589.03;4879668;28;20510;-66
2022/11/12 07:58:46;;;;;;;8.80;4.50;;;5.60;82.10;;;3.60;100.00;97586.09;4908933;28;20408;-71
2022/11/12 08:01:31;;;;;;;5.70;4.88;;;5.70;81.80;;;3.68;100.00;97589.00;4911679;28;20349;-67
2022/11/12 08:04:01;;;;;;;14.57;5.80;;;5.90;81.80;;;3.76;100.00;97579.81;4946578;28;20506;-72
2022/11/12 08:06:28;;;;;;;28.50;6.50;;;6.00;81.50;;;3.86;100.00;97591.25;4921737;28;20389;-67
2022/11/12 08:08:54;;;;;;;21.08;5.68;;;6.10;81.50;;;3.89;100.00;97588.41;4923895;28;20424;-69
2022/11/12 08:11:21;;;;;;;7.40;4.60;;;6.10;80.90;;;3.91;100.00;97582.16;4912209;28;20351;-69
2022/11/12 08:13:47;;;;;;;10.32;5.05;;;6.10;81.10;;;3.94;100.00;97586.31;4922602;28;20306;-68
2022/11/12 08:16:13;;;;;;;14.13;5.40;;;6.10;80.60;;;3.99;100.00;97589.41;4940598;28;20436;-67
2022/11/12 08:18:39;;;;;;;7.30;4.75;;;6.20;80.40;;;4.05;100.00;97586.34;4943125;28;20440;-68
2022/11/12 08:21:06;;;;;;;8.05;5.00;;;6.20;80.60;;;4.13;100.00;97594.44;4910133;28;20366;-69
2022/11/12 08:23:33;;;;;;;9.43;4.70;;;6.40;80.80;;;4.18;100.00;97584.50;4929765;28;20337;-66
2022/11/12 08:26:00;;;;;;;9.82;4.60;;;6.40;80.00;;;4.22;100.00;97593.75;4894877;28;20435;-66
2022/11/12 08:28:31;;;;;;;33.47;5.72;;;6.50;79.80;;;4.29;100.00;97600.16;4902953;28;20362;-65
2022/11/12 08:30:57;;;;;;;5.90;4.70;;;6.50;79.40;;;4.33;100.00;97594.75;4887414;28;20425;-66
2022/11/12 08:33:24;;;;;;;17.63;6.05;;;6.60;79.40;;;4.37;100.00;97601.41;4900477;28;20805;-65
2022/11/12 08:35:53;;;;;;;9.60;5.30;;;6.60;78.90;;;4.42;100.00;97591.47;4906043;28;20487;-68
2022/11/12 08:38:19;;;;;;;13.43;5.57;;;6.70;79.10;;;4.48;100.00;97599.63;4906389;28;20354;-69
2022/11/12 08:40:46;;;;;;;32.05;5.88;;;6.80;79.00;;;4.56;100.00;97599.09;4907480;28;20469;-69
2022/11/12 08:43:12;;;;;;;18.83;5.78;;;6.90;78.70;;;4.62;100.00;97606.44;4924642;28;20680;-69
2022/11/12 08:45:39;;;;;;;12.20;5.68;;;6.80;78.80;;;4.69;100.00;97599.81;4927934;28;20393;-66
2022/11/12 08:48:08;;;;;;;14.48;6.10;;;7.00;78.80;;;4.75;100.00;97596.75;4913147;28;20693;-66
2022/11/12 08:50:34;;;;;;;80.78;49.35;;;7.10;78.90;;;4.82;100.00;97608.38;4905674;28;20488;-67
2022/11/12 08:53:01;;;;;;;22.23;15.18;;;7.10;78.90;;;4.90;100.00;97605.19;4921420;28;20357;-66
2022/11/12 08:55:29;;;;;;;16.80;7.75;;;7.30;78.60;;;4.97;100.00;97598.53;4929698;28;20355;-71
2022/11/12 08:57:58;;;;;;;8.88;6.40;;;7.40;77.90;;;5.02;100.00;97598.22;4904935;28;20496;-70
2022/11/12 09:00:24;;;;;;;6.97;5.90;;;7.30;77.50;;;5.07;100.00;97602.13;4922992;28;20791;-72
2022/11/12 09:02:50;;;;;;;9.30;6.57;;;7.40;77.90;;;5.12;100.00;97607.81;4920139;28;20320;-71
2022/11/12 09:05:16;;;;;;;8.25;6.15;;;7.50;77.70;;;5.21;100.00;97596.69;4889662;28;20441;-72
2022/11/12 09:07:42;;;;;;;10.23;6.35;;;7.60;76.60;;;5.29;100.00;97601.28;4919262;28;20334;-71
2022/11/12 09:10:08;;;;;;;9.30;6.45;;;7.70;76.60;;;5.34;100.00;97596.53;4917148;28;20285;-72
2022/11/12 09:12:35;;;;;;;25.00;8.35;;;7.60;76.70;;;5.38;100.00;97607.56;4906773;28;20188;-71
2022/11/12 09:15:01;;;;;;;27.30;8.27;;;7.60;76.70;;;5.41;100.00;97605.53;4927612;28;20371;-70
2022/11/12 09:17:29;;;;;;;9.45;7.35;;;7.50;76.40;;;5.41;100.00;97604.72;4931779;28;20433;-67
2022/11/12 09:19:55;;;;;;;9.32;7.60;;;7.60;76.90;;;5.40;100.00;97603.88;4888872;28;20633;-66
2022/11/12 09:22:22;;;;;;;12.07;7.63;;;7.50;76.80;;;5.36;100.00;97607.69;4934399;28;20378;-68
2022/11/12 09:24:48;;;;;;;9.10;6.93;;;7.40;77.00;;;5.35;100.00;97599.97;4924475;28;20312;-67
2022/11/12 09:27:14;;;;;;;8.50;6.72;;;7.40;77.40;;;5.33;100.00;97613.16;4917727;28;20537;-66
2022/11/12 09:29:40;;;;;;;8.38;6.57;;;7.40;77.30;;;5.34;100.00;97608.75;4915771;28;20351;-67
2022/11/12 09:32:06;;;;;;;9.85;7.43;;;7.50;77.40;;;5.36;100.00;97605.06;4917832;28;20043;-65
2022/11/12 09:34:32;;;;;;;11.75;8.95;;;7.50;77.20;;;5.37;100.00;97601.53;4938699;28;20753;-67
2022/11/12 09:36:58;;;;;;;37.13;23.95;;;7.50;77.80;;;5.39;100.00;97622.28;4905649;28;20354;-67
2022/11/12 09:39:24;;;;;;;41.17;30.85;;;7.50;78.10;;;5.37;100.00;97619.78;4909529;28;20507;-68
2022/11/12 09:41:53;;;;;;;21.45;15.20;;;7.50;77.90;;;5.35;100.00;97611.25;4909387;28;20460;-67
2022/11/12 09:44:20;;;;;;;13.50;9.88;;;7.50;77.90;;;5.38;100.00;97616.22;4918318;28;20436;-66
2022/11/12 09:47:16;;;;;;;14.43;9.65;;;7.60;78.20;;;5.38;100.00;97613.63;4931469;28;20410;-68
2022/11/12 09:51:05;;;;;;;;;;;;;;;;;;;;;
2022/11/12 09:54:01;;;;;;;8.40;7.05;;;7.60;78.20;;;5.50;100.00;97615.28;4929523;28;20350;-68
2022/11/12 09:56:33;;;;;;;7.63;6.57;;;7.80;78.10;;;5.54;100.00;97605.44;4910913;28;20294;-68
2022/11/12 09:59:11;;;;;;;13.05;6.03;;;7.80;77.70;;;5.58;100.00;97609.44;4932671;28;20317;-68
2022/11/12 10:05:35;;;;;;;7.13;5.55;;;7.90;77.70;;;5.70;100.00;97605.88;4960044;28;20373;-69
2022/11/12 10:08:35;;;;;;;21.35;13.30;;;7.90;77.60;;;5.76;100.00;97609.78;4952697;28;20294;-69
2022/11/12 10:11:19;;;;;;;16.42;6.07;;;8.10;76.80;;;5.83;100.00;97606.56;4929545;28;20457;-69
2022/11/12 10:14:04;;;;;;;7.88;5.50;;;8.20;76.00;;;5.89;100.00;97599.19;4933827;28;20359;-69
2022/11/12 10:16:46;;;;;;;8.35;5.35;;;8.20;75.70;;;5.96;100.00;97605.63;4923560;28;20469;-69
2022/11/12 10:19:26;;;;;;;17.15;5.90;;;8.40;76.20;;;6.05;100.00;97602.25;4927040;28;20355;-67
2022/11/12 10:22:20;;;;;;;6.82;5.53;;;8.40;76.00;;;6.09;100.00;97591.41;4901029;28;20469;-66
2022/11/12 10:24:46;;;;;;;7.72;5.32;;;8.50;75.90;;;6.13;100.00;97592.84;4957269;28;20348;-67
2022/11/12 10:27:25;;;;;;;18.05;5.88;;;8.40;76.10;;;6.18;100.00;97589.88;4947208;28;20452;-69
2022/11/12 10:30:06;;;;;;;9.60;5.65;;;8.50;76.10;;;6.19;100.00;97591.53;4930564;28;20361;-68
2022/11/12 10:32:32;;;;;;;6.30;4.88;;;8.40;76.30;;;6.18;100.00;97579.41;4933382;28;20537;-71
2022/11/12 10:34:58;;;;;;;7.80;5.50;;;8.50;75.80;;;6.27;100.00;97572.59;4945858;28;20310;-69
2022/11/12 10:37:41;;;;;;;6.95;5.35;;;8.60;75.80;;;6.37;100.00;97573.50;4967311;28;20222;-70
2022/11/12 10:40:33;;;;;;;8.55;6.40;;;8.70;75.70;;;6.47;100.00;97566.56;4927477;28;20476;-70
2022/11/12 10:43:22;;;;;;;8.88;6.10;;;8.90;75.10;;;6.56;100.00;97557.09;4941233;28;20497;-70
2022/11/12 10:45:49;;;;;;;6.55;5.10;;;9.00;75.00;;;6.62;100.00;97557.44;4918554;28;20474;-69
2022/11/12 10:48:31;;;;;;;10.98;6.13;;;9.10;74.10;;;6.73;100.00;97553.91;4910454;28;20425;-70
2022/11/12 10:50:58;;;;;;;7.10;5.28;;;9.20;73.50;;;6.80;100.00;97549.00;4927399;28;20558;-69
2022/11/12 10:53:44;;;;;;;5.68;4.55;;;9.10;73.60;;;6.81;100.00;97550.66;4922244;28;20380;-69
2022/11/12 10:56:27;;;;;;;6.38;4.35;;;9.10;72.20;;;6.85;100.00;97559.91;4925346;28;20508;-69
2022/11/12 10:59:18;;;;;;;7.07;5.70;;;9.10;72.80;;;6.89;100.00;97545.59;4914360;28;20358;-70